Terminal Aerodrome Forecast
Issued by NWS

Current Version | Previous Version | Text Only | Print | Product List | Glossary Off
Versions: 1 2 3 4 5 6 7 8 9 10 11 12 13

000
FTUS41 KPBZ 242320
TAFMGW
TAF
KMGW 242320Z 2500/2524 VRB03KT P6SM SCT150
     FM250800 07005KT P6SM BKN080
     FM252000 09008KT 3SM -SHRA OVC020=

USA.gov is the U.S. government's official web portal to all federal, state and local government web resources and services.